Time;durP1;ratioP1;P1;durP2;ratioP2;P2;SDS_P1;SDS_P2;PMS_P1;PMS_P2;Temp;Humidity;BMP_temperature;BMP_pressure;BME280_temperature;BME280_humidity;BME280_pressure;Samples;Min_cycle;Max_cycle;Signal;HPM_P1;HPM_P2
2021/11/16 00:00:46;;;;;;;;;;;5.40;99.90;;;;;;5026765;28;19999;-69
2021/11/16 00:03:11;;;;;;;;;;;5.40;99.90;;;;;;5025894;28;19984;-69
2021/11/16 00:05:37;;;;;;;;;;;5.40;99.90;;;;;;5002657;28;19945;-69
2021/11/16 00:08:03;;;;;;;;;;;5.40;99.90;;;;;;5009574;28;19921;-69
2021/11/16 00:10:29;;;;;;;;;;;5.40;99.90;;;;;;5025784;28;19920;-69
2021/11/16 00:12:54;;;;;;;;;;;5.40;99.90;;;;;;5027817;28;19910;-70
2021/11/16 00:15:20;;;;;;;;;;;5.40;99.90;;;;;;5024879;28;19921;-70
2021/11/16 00:17:45;;;;;;;;;;;5.50;99.90;;;;;;5049430;22;19975;-75
2021/11/16 00:20:13;;;;;;;;;;;5.50;99.90;;;;;;5026718;28;19917;-75
2021/11/16 00:22:39;;;;;;;;;;;5.40;99.90;;;;;;5028993;28;19917;-76
2021/11/16 00:27:35;;;;;;;;;;;5.50;99.90;;;;;;5027998;28;19928;-74
2021/11/16 00:30:00;;;;;;;;;;;5.50;99.90;;;;;;5024580;28;19963;-74
2021/11/16 00:32:26;;;;;;;;;;;5.50;99.90;;;;;;5027528;28;19913;-74
2021/11/16 00:34:51;;;;;;;;;;;5.50;99.90;;;;;;5026144;28;19918;-74
2021/11/16 00:37:25;;;;;;;;;;;5.50;99.90;;;;;;5024751;28;19917;-74
2021/11/16 00:39:51;;;;;;;;;;;5.50;99.90;;;;;;5027501;28;19913;-75
2021/11/16 00:42:16;;;;;;;;;;;5.50;99.90;;;;;;5027407;28;19920;-75
2021/11/16 00:44:43;;;;;;;;;;;5.60;99.90;;;;;;5028037;28;19920;-74
2021/11/16 00:47:09;;;;;;;;;;;5.60;99.90;;;;;;5028494;28;19917;-74
2021/11/16 00:49:35;;;;;;;;;;;5.50;99.90;;;;;;5024000;28;19928;-77
2021/11/16 00:52:01;;;;;;;;;;;5.50;99.90;;;;;;5026719;28;20356;-76
2021/11/16 00:54:26;;;;;;;;;;;5.50;99.90;;;;;;5026192;28;19923;-75
2021/11/16 00:56:51;;;;;;;;;;;5.50;99.90;;;;;;5028731;28;20124;-76
2021/11/16 00:59:17;;;;;;;;;;;5.50;99.90;;;;;;5026724;28;20011;-76
2021/11/16 01:01:44;;;;;;;;;;;5.50;99.90;;;;;;5022715;28;19952;-75
2021/11/16 01:04:10;;;;;;;;;;;5.40;99.90;;;;;;5024324;28;19921;-75
2021/11/16 01:06:35;;;;;;;;;;;5.40;99.90;;;;;;5024865;28;19920;-75
2021/11/16 01:09:01;;;;;;;;;;;5.40;99.90;;;;;;5008785;28;19913;-75
2021/11/16 01:11:26;;;;;;;;;;;5.40;99.90;;;;;;5026682;28;19917;-75
2021/11/16 01:13:52;;;;;;;;;;;5.40;99.90;;;;;;5024474;28;20295;-75
2021/11/16 01:16:17;;;;;;;;;;;5.40;99.90;;;;;;5026588;28;20386;-75
2021/11/16 01:18:43;;;;;;;;;;;5.40;99.90;;;;;;5026951;28;20016;-75
2021/11/16 01:21:08;;;;;;;;;;;5.40;99.90;;;;;;5025883;28;20000;-75
2021/11/16 01:23:34;;;;;;;;;;;5.40;99.90;;;;;;5022691;28;19944;-75
2021/11/16 01:26:01;;;;;;;;;;;5.40;99.90;;;;;;5016804;28;19913;-75
2021/11/16 01:28:28;;;;;;;;;;;5.40;99.90;;;;;;5007945;28;20355;-74
2021/11/16 01:30:56;;;;;;;;;;;5.30;99.90;;;;;;5016802;28;19921;-73
2021/11/16 01:33:28;;;;;;;;;;;5.30;99.90;;;;;;5026839;28;19917;-73
2021/11/16 01:35:54;;;;;;;;;;;5.30;99.90;;;;;;5028057;28;19909;-73
2021/11/16 01:38:20;;;;;;;;;;;5.30;99.90;;;;;;5027753;28;19995;-73
2021/11/16 01:40:47;;;;;;;;;;;5.30;99.90;;;;;;5017268;28;20395;-73
2021/11/16 01:43:13;;;;;;;;;;;5.30;99.90;;;;;;5026133;28;19913;-73
2021/11/16 01:45:39;;;;;;;;;;;5.30;99.90;;;;;;5027700;28;19921;-73
2021/11/16 01:48:05;;;;;;;;;;;5.40;99.90;;;;;;5024202;28;19928;-73
2021/11/16 01:50:31;;;;;;;;;;;5.40;99.90;;;;;;5024064;28;20008;-75
2021/11/16 01:52:56;;;;;;;;;;;5.40;99.90;;;;;;5024429;28;20451;-74
2021/11/16 01:55:22;;;;;;;;;;;5.40;99.90;;;;;;5026931;28;19920;-74
2021/11/16 01:57:49;;;;;;;;;;;5.40;99.90;;;;;;5027003;28;20364;-74
2021/11/16 02:00:16;;;;;;;;;;;5.40;99.90;;;;;;5028252;28;20124;-74
2021/11/16 02:02:41;;;;;;;;;;;5.40;99.90;;;;;;5025992;28;19952;-74
2021/11/16 02:05:07;;;;;;;;;;;5.40;99.90;;;;;;5026671;28;19957;-75
2021/11/16 02:07:33;;;;;;;;;;;5.40;99.90;;;;;;5029443;28;20342;-74
2021/11/16 02:09:59;;;;;;;;;;;5.40;99.90;;;;;;5030074;28;20004;-74
2021/11/16 02:12:24;;;;;;;;;;;5.50;99.90;;;;;;5030714;28;19924;-74
2021/11/16 02:14:50;;;;;;;;;;;5.50;99.90;;;;;;5028592;28;19920;-74
2021/11/16 02:17:15;;;;;;;;;;;5.50;99.90;;;;;;5029720;28;19913;-73
2021/11/16 02:19:41;;;;;;;;;;;5.50;99.90;;;;;;5029328;28;20012;-74
2021/11/16 02:22:06;;;;;;;;;;;5.50;99.90;;;;;;5025564;28;20011;-74
2021/11/16 02:24:32;;;;;;;;;;;5.50;99.90;;;;;;5018900;28;20283;-74
2021/11/16 02:26:58;;;;;;;;;;;5.50;99.90;;;;;;5013318;28;20334;-75
2021/11/16 02:29:23;;;;;;;;;;;5.60;99.90;;;;;;5011283;28;19921;-74
2021/11/16 02:31:55;;;;;;;;;;;5.50;99.90;;;;;;5030343;28;19932;-74
2021/11/16 02:34:22;;;;;;;;;;;5.50;99.90;;;;;;5030611;28;20015;-74
2021/11/16 02:36:47;;;;;;;;;;;5.50;99.90;;;;;;5030923;28;20000;-74
2021/11/16 02:39:15;;;;;;;;;;;5.50;99.90;;;;;;5025338;28;20021;-74
2021/11/16 02:41:43;;;;;;;;;;;5.50;99.90;;;;;;5025950;28;19922;-74
2021/11/16 02:44:08;;;;;;;;;;;5.50;99.90;;;;;;5026918;28;19924;-74
2021/11/16 02:46:34;;;;;;;;;;;5.50;99.90;;;;;;5030677;28;19913;-74
2021/11/16 02:49:00;;;;;;;;;;;5.50;99.90;;;;;;5027689;28;19913;-74
2021/11/16 02:51:26;;;;;;;;;;;5.50;99.90;;;;;;5030747;28;19963;-74
2021/11/16 02:53:52;;;;;;;;;;;5.50;99.90;;;;;;5030526;28;20360;-74
2021/11/16 02:56:17;;;;;;;;;;;5.50;99.90;;;;;;5029757;28;20006;-74
2021/11/16 02:58:43;;;;;;;;;;;5.50;99.90;;;;;;5028012;28;19947;-74
2021/11/16 03:01:14;;;;;;;;;;;5.50;99.90;;;;;;5026865;28;19948;-74
2021/11/16 03:03:40;;;;;;;;;;;5.40;99.90;;;;;;5026973;28;19956;-74
2021/11/16 03:06:06;;;;;;;;;;;5.40;99.90;;;;;;5030146;28;19909;-74
2021/11/16 03:08:32;;;;;;;;;;;5.40;99.90;;;;;;5027543;28;19975;-74
2021/11/16 03:11:00;;;;;;;;;;;5.40;99.90;;;;;;5029765;28;19917;-74
2021/11/16 03:13:26;;;;;;;;;;;5.50;99.90;;;;;;5024545;28;19917;-75
2021/11/16 03:15:51;;;;;;;;;;;5.50;99.90;;;;;;5029425;28;19959;-74
2021/11/16 03:18:17;;;;;;;;;;;5.40;99.90;;;;;;5028339;28;20030;-74
2021/11/16 03:20:43;;;;;;;;;;;5.40;99.90;;;;;;5029912;28;20040;-74
2021/11/16 03:23:26;;;;;;;;;;;5.40;99.90;;;;;;5027620;28;20007;-74
2021/11/16 03:25:58;;;;;;;;;;;5.40;99.90;;;;;;5030373;28;19920;-74
2021/11/16 03:28:25;;;;;;;;;;;5.40;99.90;;;;;;5026967;28;20288;-74
2021/11/16 03:30:52;;;;;;;;;;;5.40;99.90;;;;;;5026874;28;19920;-74
2021/11/16 03:33:18;;;;;;;;;;;5.50;99.90;;;;;;5028502;28;20038;-74
2021/11/16 03:35:44;;;;;;;;;;;5.40;99.90;;;;;;5030977;28;19917;-74
2021/11/16 03:38:10;;;;;;;;;;;5.40;99.90;;;;;;5027901;28;19919;-74
2021/11/16 03:40:38;;;;;;;;;;;5.40;99.90;;;;;;5030631;28;20014;-74
2021/11/16 03:43:04;;;;;;;;;;;5.40;99.90;;;;;;5026147;28;19924;-74
2021/11/16 03:45:30;;;;;;;;;;;5.40;99.90;;;;;;5028350;28;20449;-74
2021/11/16 03:47:56;;;;;;;;;;;5.40;99.90;;;;;;5028721;28;19963;-74
2021/11/16 03:50:24;;;;;;;;;;;5.40;99.90;;;;;;5028038;28;19921;-74
2021/11/16 03:52:53;;;;;;;;;;;5.40;99.90;;;;;;5025450;28;19917;-74
2021/11/16 03:55:19;;;;;;;;;;;5.30;99.90;;;;;;5027947;28;19913;-74
2021/11/16 03:57:45;;;;;;;;;;;5.30;99.90;;;;;;5027927;28;20003;-74
2021/11/16 04:00:21;;;;;;;;;;;5.30;99.90;;;;;;5025175;28;20067;-74
2021/11/16 04:02:46;;;;;;;;;;;5.40;99.90;;;;;;5027090;28;20227;-74
2021/11/16 04:05:12;;;;;;;;;;;5.40;99.90;;;;;;5026407;28;20379;-74
2021/11/16 04:07:40;;;;;;;;;;;5.40;99.90;;;;;;5024021;28;19928;-74
2021/11/16 04:10:12;;;;;;;;;;;5.40;99.90;;;;;;5028045;28;20291;-74
2021/11/16 04:12:38;;;;;;;;;;;5.40;99.90;;;;;;5027922;28;19991;-74
2021/11/16 04:15:04;;;;;;;;;;;5.40;99.90;;;;;;5025213;28;19921;-74
2021/11/16 04:17:32;;;;;;;;;;;5.40;99.90;;;;;;5024129;28;19920;-74
2021/11/16 04:19:59;;;;;;;;;;;5.40;99.90;;;;;;5026168;28;19924;-74
2021/11/16 04:22:24;;;;;;;;;;;5.50;99.90;;;;;;5027475;28;19971;-74
2021/11/16 04:24:50;;;;;;;;;;;5.50;99.90;;;;;;5026857;28;20612;-75
2021/11/16 04:27:15;;;;;;;;;;;5.50;99.90;;;;;;5019945;28;19975;-74
2021/11/16 04:29:41;;;;;;;;;;;5.40;99.90;;;;;;5020726;28;19963;-74
2021/11/16 04:32:06;;;;;;;;;;;5.40;99.90;;;;;;5020882;28;19959;-74
2021/11/16 04:34:32;;;;;;;;;;;5.30;99.90;;;;;;5027143;28;20256;-74
2021/11/16 04:36:57;;;;;;;;;;;5.30;99.90;;;;;;5022789;28;19992;-74
2021/11/16 04:39:23;;;;;;;;;;;5.30;99.90;;;;;;5025725;28;20315;-74
2021/11/16 04:41:48;;;;;;;;;;;5.30;99.90;;;;;;5030163;28;20551;-74
2021/11/16 04:44:14;;;;;;;;;;;5.30;99.90;;;;;;5027048;28;20347;-74
2021/11/16 04:46:39;;;;;;;;;;;5.30;99.90;;;;;;5027633;28;19921;-74
2021/11/16 04:55:23;;;;;;;;;;;5.30;99.90;;;;;;5021412;28;19921;-74
2021/11/16 05:02:39;;;;;;;;;;;5.30;99.90;;;;;;5024266;28;19928;-75
2021/11/16 05:05:08;;;;;;;;;;;5.30;99.90;;;;;;5018629;28;19917;-75
2021/11/16 05:07:34;;;;;;;;;;;5.30;99.90;;;;;;5020650;28;19920;-75
2021/11/16 05:10:00;;;;;;;;;;;5.30;99.90;;;;;;5019358;28;19952;-75
2021/11/16 05:12:27;;;;;;;;;;;5.40;99.90;;;;;;5024898;28;19909;-75
2021/11/16 05:14:53;;;;;;;;;;;5.40;99.90;;;;;;5018779;28;19921;-76
2021/11/16 05:17:18;;;;;;;;;;;5.40;99.90;;;;;;5025526;28;19988;-74
2021/11/16 05:19:44;;;;;;;;;;;5.40;99.90;;;;;;5021397;28;20343;-75
2021/11/16 05:22:09;;;;;;;;;;;5.40;99.90;;;;;;5025138;28;19920;-76
2021/11/16 05:24:35;;;;;;;;;;;5.50;99.90;;;;;;5026774;28;19923;-75
2021/11/16 05:27:00;;;;;;;;;;;5.50;99.90;;;;;;5024163;28;19997;-76
2021/11/16 05:29:26;;;;;;;;;;;5.40;99.90;;;;;;5020621;28;19936;-75
2021/11/16 05:31:52;;;;;;;;;;;5.40;99.90;;;;;;5024289;28;19920;-75
2021/11/16 05:34:17;;;;;;;;;;;5.40;99.90;;;;;;5025322;28;20007;-76
2021/11/16 05:36:43;;;;;;;;;;;5.40;99.90;;;;;;5023273;28;19922;-76
2021/11/16 05:39:08;;;;;;;;;;;5.40;99.90;;;;;;5023821;28;19917;-75
2021/11/16 05:41:35;;;;;;;;;;;5.40;99.90;;;;;;5025070;28;19920;-76
2021/11/16 05:44:01;;;;;;;;;;;5.40;99.90;;;;;;5026233;28;19939;-75
2021/11/16 05:46:26;;;;;;;;;;;5.40;99.90;;;;;;5020900;28;19917;-75
2021/11/16 05:48:53;;;;;;;;;;;5.40;99.90;;;;;;5025205;28;19909;-76
2021/11/16 05:51:20;;;;;;;;;;;5.40;99.90;;;;;;5024222;28;20289;-76
2021/11/16 05:53:51;;;;;;;;;;;5.40;99.90;;;;;;5025870;28;19992;-76
2021/11/16 05:56:19;;;;;;;;;;;5.40;99.90;;;;;;5020903;28;19914;-76
2021/11/16 05:58:45;;;;;;;;;;;5.40;99.90;;;;;;5002341;28;20400;-76
2021/11/16 06:01:10;;;;;;;;;;;5.40;99.90;;;;;;5019831;28;19921;-76
2021/11/16 06:03:36;;;;;;;;;;;5.40;99.90;;;;;;5021739;28;19917;-76
2021/11/16 06:06:01;;;;;;;;;;;5.40;99.90;;;;;;5019526;28;19913;-75
2021/11/16 06:08:27;;;;;;;;;;;5.40;99.90;;;;;;5025207;28;19917;-75
2021/11/16 06:10:54;;;;;;;;;;;5.40;99.90;;;;;;5023555;28;19985;-76
2021/11/16 06:13:20;;;;;;;;;;;5.40;99.90;;;;;;5025486;28;19917;-76
2021/11/16 06:15:45;;;;;;;;;;;5.40;99.90;;;;;;5021158;28;20387;-77
2021/11/16 06:18:11;;;;;;;;;;;5.50;99.90;;;;;;5019669;28;19924;-76
2021/11/16 06:20:38;;;;;;;;;;;5.50;99.90;;;;;;5023737;28;20019;-76
2021/11/16 06:23:03;;;;;;;;;;;5.60;99.90;;;;;;5021485;28;19920;-73
2021/11/16 06:25:29;;;;;;;;;;;5.60;99.90;;;;;;5035628;22;20280;-68
2021/11/16 06:27:54;;;;;;;;;;;5.60;99.90;;;;;;5005847;28;19918;-68
2021/11/16 06:30:21;;;;;;;;;;;5.50;99.90;;;;;;4989628;28;19917;-68
2021/11/16 06:32:47;;;;;;;;;;;5.50;99.90;;;;;;4989668;28;19913;-68
2021/11/16 06:35:16;;;;;;;;;;;5.50;99.90;;;;;;4989190;28;19928;-68
2021/11/16 06:37:42;;;;;;;;;;;5.50;99.90;;;;;;5007210;28;19921;-68
2021/11/16 06:40:08;;;;;;;;;;;5.50;99.90;;;;;;5006915;28;20296;-68
2021/11/16 06:42:33;;;;;;;;;;;5.50;99.90;;;;;;5007561;28;19921;-68
2021/11/16 06:44:59;;;;;;;;;;;5.50;99.90;;;;;;5011534;28;19917;-68
2021/11/16 06:47:24;;;;;;;;;;;5.50;99.90;;;;;;5011505;28;19913;-68
2021/11/16 06:49:51;;;;;;;;;;;5.60;99.90;;;;;;5011548;28;19913;-68
2021/11/16 06:52:17;;;;;;;;;;;5.70;99.90;;;;;;5010808;28;19920;-68
2021/11/16 06:54:43;;;;;;;;;;;5.70;99.90;;;;;;5011557;28;19936;-68
2021/11/16 06:57:08;;;;;;;;;;;5.70;99.90;;;;;;5010500;28;20396;-68
2021/11/16 06:59:34;;;;;;;;;;;5.80;99.90;;;;;;5011282;28;19913;-68
2021/11/16 07:01:59;;;;;;;;;;;5.80;99.90;;;;;;5010812;28;19916;-68
2021/11/16 07:04:33;;;;;;;;;;;5.80;99.90;;;;;;5011695;28;19920;-68
2021/11/16 07:06:59;;;;;;;;;;;5.80;99.90;;;;;;5008165;28;19927;-68
2021/11/16 07:09:25;;;;;;;;;;;5.80;99.90;;;;;;5007305;28;19913;-69
2021/11/16 07:11:54;;;;;;;;;;;5.80;99.90;;;;;;5007830;28;20005;-68
2021/11/16 07:14:20;;;;;;;;;;;5.80;99.90;;;;;;5002482;28;19917;-66
2021/11/16 07:16:55;;;;;;;;;;;5.80;99.90;;;;;;5005183;28;19960;-68
2021/11/16 07:19:35;;;;;;;;;;;5.70;99.90;;;;;;5011010;28;19916;-68
2021/11/16 07:22:03;;;;;;;;;;;5.70;99.90;;;;;;5006358;28;19929;-68
2021/11/16 07:24:29;;;;;;;;;;;5.70;99.90;;;;;;5001362;28;19917;-68
2021/11/16 07:26:59;;;;;;;;;;;5.60;99.90;;;;;;5002824;28;19922;-68
2021/11/16 07:29:39;;;;;;;;;;;5.60;99.90;;;;;;5004139;28;20408;-68
2021/11/16 07:32:06;;;;;;;;;;;5.60;99.90;;;;;;5008430;28;20017;-68
2021/11/16 07:34:33;;;;;;;;;;;5.50;99.90;;;;;;5008166;28;19918;-68
2021/11/16 07:37:06;;;;;;;;;;;5.50;99.90;;;;;;5010197;28;19920;-67
2021/11/16 07:39:42;;;;;;;;;;;5.50;99.90;;;;;;5008510;28;19913;-70
2021/11/16 07:42:08;;;;;;;;;;;5.50;99.90;;;;;;4992121;28;19914;-70
2021/11/16 07:44:34;;;;;;;;;;;5.60;99.90;;;;;;5009197;28;19921;-69
2021/11/16 07:47:00;;;;;;;;;;;5.70;99.90;;;;;;5009386;28;19917;-70
2021/11/16 07:49:25;;;;;;;;;;;5.70;99.90;;;;;;5008604;28;20043;-70
2021/11/16 07:51:52;;;;;;;;;;;5.70;99.90;;;;;;5010636;28;19914;-69
2021/11/16 07:54:21;;;;;;;;;;;5.70;99.90;;;;;;5008652;28;20052;-69
2021/11/16 07:56:47;;;;;;;;;;;5.80;99.90;;;;;;5009060;28;19920;-69
2021/11/16 07:59:13;;;;;;;;;;;5.80;99.90;;;;;;5007206;28;20300;-69
2021/11/16 08:01:42;;;;;;;;;;;5.80;99.90;;;;;;5007873;28;19987;-68
2021/11/16 08:12:11;;;;;;;;;;;5.90;99.90;;;;;;5006800;28;21307;-67
2021/11/16 08:14:37;;;;;;;;;;;6.00;99.90;;;;;;5008164;28;20333;-67
2021/11/16 08:17:04;;;;;;;;;;;6.00;99.90;;;;;;5008452;28;19913;-68
2021/11/16 08:19:31;;;;;;;;;;;6.00;99.90;;;;;;5007506;28;20216;-67
2021/11/16 08:21:59;;;;;;;;;;;6.00;99.90;;;;;;5008450;28;19925;-67
2021/11/16 08:24:27;;;;;;;;;;;6.00;99.90;;;;;;5007697;28;20289;-66
2021/11/16 08:26:52;;;;;;;;;;;6.00;99.90;;;;;;5008585;28;20297;-67
2021/11/16 08:29:23;;;;;;;;;;;6.10;99.90;;;;;;5007423;28;20008;-66
2021/11/16 08:31:52;;;;;;;;;;;6.10;99.90;;;;;;5007412;28;19917;-65
2021/11/16 08:34:19;;;;;;;;;;;6.10;99.90;;;;;;5006861;28;19917;-67
2021/11/16 08:36:44;;;;;;;;;;;6.00;99.90;;;;;;5009116;28;19921;-66
2021/11/16 08:39:10;;;;;;;;;;;5.90;99.90;;;;;;5006899;28;19917;-68
2021/11/16 08:41:37;;;;;;;;;;;5.90;99.90;;;;;;5008139;28;19924;-68
2021/11/16 08:44:14;;;;;;;;;;;5.90;99.90;;;;;;5006354;28;19936;-68
2021/11/16 08:46:43;;;;;;;;;;;5.90;99.90;;;;;;5006171;28;19917;-68
2021/11/16 08:49:19;;;;;;;;;;;5.90;99.90;;;;;;5005950;28;19913;-67
2021/11/16 08:51:44;;;;;;;;;;;6.00;99.90;;;;;;5006864;28;19913;-67
2021/11/16 08:54:10;;;;;;;;;;;6.00;99.90;;;;;;5005741;28;19924;-67
2021/11/16 08:56:37;;;;;;;;;;;6.00;99.90;;;;;;5006124;28;19917;-67
2021/11/16 08:59:13;;;;;;;;;;;6.10;99.90;;;;;;5004533;28;19921;-66
2021/11/16 09:01:38;;;;;;;;;;;6.10;99.90;;;;;;5004166;28;20375;-69
2021/11/16 09:04:06;;;;;;;;;;;6.20;99.90;;;;;;5007278;28;20000;-69
2021/11/16 09:06:32;;;;;;;;;;;6.20;99.90;;;;;;5005948;28;19921;-69
2021/11/16 09:09:12;;;;;;;;;;;6.20;99.90;;;;;;5008146;28;19921;-68
2021/11/16 09:11:38;;;;;;;;;;;6.20;99.90;;;;;;5003872;28;19914;-68
2021/11/16 09:14:12;;;;;;;;;;;6.20;99.90;;;;;;5005371;28;19921;-68
2021/11/16 09:16:40;;;;;;;;;;;6.20;99.90;;;;;;5007593;28;19964;-68
2021/11/16 09:19:06;;;;;;;;;;;6.20;99.90;;;;;;5006592;28;19920;-67
2021/11/16 09:21:35;;;;;;;;;;;6.20;99.90;;;;;;5008438;28;19917;-67
2021/11/16 09:24:01;;;;;;;;;;;6.10;99.90;;;;;;5007568;28;20492;-68
2021/11/16 09:29:00;;;;;;;;;;;6.10;99.90;;;;;;5006636;28;19939;-67
2021/11/16 09:31:28;;;;;;;;;;;5.90;99.90;;;;;;5004969;28;19921;-69
2021/11/16 09:33:55;;;;;;;;;;;5.90;99.90;;;;;;5006101;28;19920;-69
2021/11/16 09:36:25;;;;;;;;;;;5.90;99.90;;;;;;5007558;28;19929;-69
2021/11/16 09:38:54;;;;;;;;;;;5.80;99.90;;;;;;5007806;28;20866;-70
2021/11/16 09:41:30;;;;;;;;;;;5.90;99.90;;;;;;4990041;28;20404;-70
2021/11/16 09:43:57;;;;;;;;;;;5.90;99.90;;;;;;5006095;28;19920;-70
2021/11/16 09:46:22;;;;;;;;;;;6.00;99.90;;;;;;5006564;28;19922;-70
2021/11/16 09:48:55;;;;;;;;;;;6.00;99.90;;;;;;5007356;28;19924;-67
2021/11/16 09:51:20;;;;;;;;;;;6.00;99.90;;;;;;5006662;28;19920;-68
2021/11/16 09:53:46;;;;;;;;;;;6.00;99.90;;;;;;5007909;28;19918;-67
2021/11/16 09:56:24;;;;;;;;;;;5.90;99.90;;;;;;5007811;28;19918;-67
2021/11/16 09:58:49;;;;;;;;;;;5.90;99.90;;;;;;4988357;28;19928;-67
2021/11/16 10:01:29;;;;;;;;;;;5.90;99.90;;;;;;4988177;28;19918;-67
2021/11/16 10:04:16;;;;;;;;;;;5.90;99.90;;;;;;4989117;28;20373;-68
2021/11/16 10:06:42;;;;;;;;;;;5.90;99.90;;;;;;5005501;28;19917;-68
2021/11/16 10:09:08;;;;;;;;;;;6.00;99.90;;;;;;5006034;28;20407;-67
2021/11/16 10:11:34;;;;;;;;;;;6.00;99.90;;;;;;5007023;28;19913;-67
2021/11/16 10:14:00;;;;;;;;;;;6.10;99.90;;;;;;5006980;28;20383;-67
2021/11/16 10:16:25;;;;;;;;;;;6.10;99.90;;;;;;5004874;28;19999;-67
2021/11/16 10:18:51;;;;;;;;;;;6.20;99.90;;;;;;5008867;28;19968;-67
2021/11/16 10:21:17;;;;;;;;;;;6.30;99.90;;;;;;5010877;28;20241;-67
2021/11/16 10:23:46;;;;;;;;;;;6.30;99.90;;;;;;5010141;28;19972;-67
2021/11/16 10:26:12;;;;;;;;;;;6.40;99.90;;;;;;5010077;28;19975;-67
2021/11/16 10:28:42;;;;;;;;;;;6.40;99.90;;;;;;5010801;28;19995;-68
2021/11/16 10:31:07;;;;;;;;;;;6.40;99.90;;;;;;5009432;28;19914;-68
2021/11/16 10:33:40;;;;;;;;;;;6.40;99.90;;;;;;5008649;28;19917;-68
2021/11/16 10:36:07;;;;;;;;;;;6.40;99.90;;;;;;5010552;28;20422;-68
2021/11/16 10:38:34;;;;;;;;;;;6.40;99.90;;;;;;5008005;28;19925;-70
2021/11/16 10:41:04;;;;;;;;;;;6.40;99.90;;;;;;5009261;28;19920;-67
2021/11/16 10:43:36;;;;;;;;;;;6.40;99.90;;;;;;5008951;28;19924;-69
2021/11/16 10:46:03;;;;;;;;;;;6.40;99.90;;;;;;5008236;28;19953;-68
2021/11/16 10:48:28;;;;;;;;;;;6.40;99.90;;;;;;4986048;28;19953;-68
2021/11/16 10:50:54;;;;;;;;;;;6.50;99.90;;;;;;5007680;28;19914;-68
2021/11/16 10:53:21;;;;;;;;;;;6.50;99.90;;;;;;4992481;28;19913;-68
2021/11/16 10:55:51;;;;;;;;;;;6.50;99.90;;;;;;5010750;28;19920;-68
2021/11/16 10:58:18;;;;;;;;;;;6.40;99.90;;;;;;5011055;28;20394;-68
2021/11/16 11:00:43;;;;;;;;;;;6.30;99.90;;;;;;5009797;28;19971;-66
2021/11/16 11:03:13;;;;;;;;;;;6.40;99.90;;;;;;5009755;28;19914;-67
2021/11/16 11:05:38;;;;;;;;;;;6.40;99.90;;;;;;5007488;28;20308;-66
2021/11/16 11:08:04;;;;;;;;;;;6.40;99.90;;;;;;5007576;28;19929;-67
2021/11/16 11:10:41;;;;;;;;;;;6.40;99.90;;;;;;5009924;28;19917;-67
2021/11/16 11:13:23;;;;;;;;;;;6.40;99.90;;;;;;5007793;28;19925;-66
2021/11/16 11:15:49;;;;;;;;;;;6.40;99.90;;;;;;5008652;28;20012;-67
2021/11/16 11:18:28;;;;;;;;;;;6.50;99.90;;;;;;5008065;28;19917;-67
2021/11/16 11:20:55;;;;;;;;;;;6.40;99.90;;;;;;5008437;28;19979;-66
2021/11/16 11:23:27;;;;;;;;;;;6.40;99.90;;;;;;5007710;28;19914;-67
2021/11/16 11:26:13;;;;;;;;;;;6.40;99.90;;;;;;5009699;28;19964;-67
2021/11/16 11:28:41;;;;;;;;;;;6.40;99.90;;;;;;5009058;28;19921;-68
2021/11/16 11:31:25;;;;;;;;;;;6.50;99.90;;;;;;5003303;28;19964;-67
2021/11/16 11:33:51;;;;;;;;;;;6.50;99.90;;;;;;4990177;28;19918;-68
2021/11/16 11:36:18;;;;;;;;;;;6.50;99.90;;;;;;4987952;28;19920;-68
2021/11/16 11:38:43;;;;;;;;;;;6.40;99.90;;;;;;4996769;28;19922;-68
2021/11/16 11:41:09;;;;;;;;;;;6.40;99.90;;;;;;5004844;28;20357;-68
2021/11/16 11:43:35;;;;;;;;;;;6.50;99.90;;;;;;5005502;28;20624;-68
2021/11/16 11:46:00;;;;;;;;;;;6.50;99.90;;;;;;5010403;28;19917;-69
2021/11/16 11:48:26;;;;;;;;;;;6.40;99.90;;;;;;5008607;28;20298;-69
2021/11/16 11:50:57;;;;;;;;;;;6.40;99.90;;;;;;5007262;28;20368;-70
2021/11/16 11:53:33;;;;;;;;;;;6.40;99.90;;;;;;5009633;28;19953;-70
2021/11/16 11:56:04;;;;;;;;;;;6.40;99.90;;;;;;5008710;28;19953;-70
2021/11/16 11:58:32;;;;;;;;;;;6.40;99.90;;;;;;4991165;28;19914;-70
2021/11/16 12:00:59;;;;;;;;;;;6.50;99.90;;;;;;4990956;28;19918;-70
2021/11/16 12:03:25;;;;;;;;;;;6.50;99.90;;;;;;5008396;28;20015;-70
2021/11/16 12:05:51;;;;;;;;;;;6.50;99.90;;;;;;5010091;28;19956;-69
2021/11/16 12:08:16;;;;;;;;;;;6.50;99.90;;;;;;4992614;28;19957;-69
2021/11/16 12:10:47;;;;;;;;;;;6.50;99.90;;;;;;5007825;28;19924;-69
2021/11/16 12:13:17;;;;;;;;;;;6.50;99.90;;;;;;4996164;28;19921;-69
2021/11/16 12:15:55;;;;;;;;;;;6.40;99.90;;;;;;5013686;28;20004;-72
2021/11/16 12:18:34;;;;;;;;;;;6.40;99.90;;;;;;5012973;28;19918;-72
2021/11/16 12:21:00;;;;;;;;;;;6.40;99.90;;;;;;5012576;28;19917;-73
2021/11/16 12:23:42;;;;;;;;;;;6.40;99.90;;;;;;4995508;28;19921;-70
2021/11/16 12:26:11;;;;;;;;;;;6.40;99.90;;;;;;5009339;28;19917;-70
2021/11/16 12:28:36;;;;;;;;;;;6.40;99.90;;;;;;5006986;28;19921;-71
2021/11/16 12:31:02;;;;;;;;;;;6.40;99.90;;;;;;5007432;28;19929;-70
2021/11/16 12:33:39;;;;;;;;;;;6.40;99.90;;;;;;4989943;28;19968;-73
2021/11/16 12:36:05;;;;;;;;;;;6.50;99.90;;;;;;5005541;28;20356;-71
2021/11/16 12:38:39;;;;;;;;;;;6.50;99.90;;;;;;5007375;28;19917;-71
2021/11/16 12:41:25;;;;;;;;;;;6.50;99.90;;;;;;5007644;28;19913;-72
2021/11/16 12:43:50;;;;;;;;;;;6.50;99.90;;;;;;5006262;28;19914;-70
2021/11/16 12:46:19;;;;;;;;;;;6.60;99.90;;;;;;5004834;28;19914;-73
2021/11/16 12:48:48;;;;;;;;;;;6.60;99.90;;;;;;4992265;28;19971;-71
2021/11/16 12:51:18;;;;;;;;;;;6.50;99.90;;;;;;4990670;28;20012;-70
2021/11/16 12:53:48;;;;;;;;;;;6.50;99.90;;;;;;5004592;28;19980;-71
2021/11/16 12:56:14;;;;;;;;;;;6.50;99.90;;;;;;5006925;28;20134;-70
2021/11/16 12:58:53;;;;;;;;;;;6.50;99.90;;;;;;5006361;28;20015;-70
2021/11/16 13:01:35;;;;;;;;;;;6.50;99.90;;;;;;5007771;28;19920;-69
2021/11/16 13:04:05;;;;;;;;;;;6.50;99.90;;;;;;5004463;28;20324;-72
2021/11/16 13:06:31;;;;;;;;;;;6.50;99.90;;;;;;5006907;28;19914;-71
2021/11/16 13:08:56;;;;;;;;;;;6.60;99.90;;;;;;5005402;28;20027;-71
2021/11/16 13:11:51;;;;;;;;;;;6.60;99.90;;;;;;5007275;28;19974;-69
2021/11/16 13:14:35;;;;;;;;;;;6.60;99.90;;;;;;4988899;28;19977;-70
2021/11/16 13:17:00;;;;;;;;;;;6.60;99.90;;;;;;5008114;28;19914;-70
2021/11/16 13:19:26;;;;;;;;;;;6.60;99.90;;;;;;5006915;28;19925;-70
2021/11/16 13:21:52;;;;;;;;;;;6.60;99.90;;;;;;4990462;28;19918;-70
2021/11/16 13:24:17;;;;;;;;;;;6.50;99.90;;;;;;5006469;28;19924;-71
2021/11/16 13:26:45;;;;;;;;;;;6.50;99.90;;;;;;5007163;28;19917;-71
2021/11/16 13:29:20;;;;;;;;;;;6.40;99.90;;;;;;4988009;28;19914;-72
2021/11/16 13:31:50;;;;;;;;;;;6.40;99.90;;;;;;5007571;28;19913;-68
2021/11/16 13:34:19;;;;;;;;;;;6.40;99.90;;;;;;5006425;28;19914;-69
2021/11/16 13:36:53;;;;;;;;;;;6.40;99.90;;;;;;4987166;28;19913;-69
2021/11/16 13:39:26;;;;;;;;;;;6.30;99.90;;;;;;5004838;28;19924;-69
2021/11/16 13:41:53;;;;;;;;;;;6.40;99.90;;;;;;5008260;28;19978;-70
2021/11/16 13:44:24;;;;;;;;;;;6.40;99.90;;;;;;4982673;28;19918;-68
2021/11/16 13:46:55;;;;;;;;;;;6.40;99.90;;;;;;5004872;28;20008;-69
2021/11/16 13:49:28;;;;;;;;;;;6.40;99.90;;;;;;4989595;28;19921;-69
2021/11/16 13:51:54;;;;;;;;;;;6.50;99.90;;;;;;5006294;28;19921;-70
2021/11/16 13:54:20;;;;;;;;;;;6.40;99.90;;;;;;4991789;28;19913;-70
2021/11/16 13:56:46;;;;;;;;;;;6.50;99.90;;;;;;5009733;28;19917;-70
2021/11/16 13:59:13;;;;;;;;;;;6.50;99.90;;;;;;4999445;28;19922;-72
2021/11/16 14:01:38;;;;;;;;;;;6.60;99.90;;;;;;4992444;28;19917;-72
2021/11/16 14:04:11;;;;;;;;;;;6.60;99.90;;;;;;5008399;28;19917;-71
2021/11/16 14:06:36;;;;;;;;;;;6.60;99.90;;;;;;4988244;28;20297;-69
2021/11/16 14:09:18;;;;;;;;;;;6.60;99.90;;;;;;4992979;28;19926;-70
2021/11/16 14:11:47;;;;;;;;;;;6.60;99.90;;;;;;4992839;28;20016;-71
2021/11/16 14:14:17;;;;;;;;;;;6.60;99.90;;;;;;5010164;28;20004;-70
2021/11/16 14:16:42;;;;;;;;;;;6.50;99.90;;;;;;4992457;28;19921;-69
2021/11/16 14:19:08;;;;;;;;;;;6.60;99.90;;;;;;5009631;28;19918;-72
2021/11/16 14:21:37;;;;;;;;;;;6.50;99.90;;;;;;4992407;28;19914;-72
2021/11/16 14:24:02;;;;;;;;;;;6.50;99.90;;;;;;5010692;28;19921;-71
2021/11/16 14:26:29;;;;;;;;;;;6.50;99.90;;;;;;5008675;28;20285;-73
2021/11/16 14:28:55;;;;;;;;;;;6.50;99.90;;;;;;5008788;28;19957;-73
2021/11/16 14:31:23;;;;;;;;;;;6.50;99.90;;;;;;5008824;28;19917;-73
2021/11/16 14:33:50;;;;;;;;;;;6.50;99.90;;;;;;4991746;28;20320;-72
2021/11/16 14:36:16;;;;;;;;;;;6.60;99.90;;;;;;4988954;28;20016;-74
2021/11/16 14:38:43;;;;;;;;;;;6.60;99.90;;;;;;5008946;28;20416;-74
2021/11/16 14:41:10;;;;;;;;;;;6.60;99.90;;;;;;5011644;28;19945;-71
2021/11/16 14:43:35;;;;;;;;;;;6.60;99.90;;;;;;5008896;28;19918;-68
2021/11/16 14:46:08;;;;;;;;;;;6.50;99.90;;;;;;5011240;28;19921;-68
2021/11/16 14:48:36;;;;;;;;;;;6.50;99.90;;;;;;5009415;28;20056;-69
2021/11/16 14:51:19;;;;;;;;;;;6.50;99.90;;;;;;5008927;28;20407;-69
2021/11/16 14:53:49;;;;;;;;;;;6.50;99.90;;;;;;5009740;28;19921;-69
2021/11/16 14:56:16;;;;;;;;;;;6.50;99.90;;;;;;5009063;28;20346;-69
2021/11/16 14:59:11;;;;;;;;;;;6.50;99.90;;;;;;4992360;28;19913;-69